createdAt,value
2019-04-25T00:00:02.007Z,0.20
2019-04-25T00:04:19.194Z,0.27
2019-04-25T00:08:37.248Z,0.47
2019-04-25T00:12:53.787Z,0.30
2019-04-25T00:17:11.378Z,0.30
2019-04-25T00:21:36.233Z,0.37
2019-04-25T00:26:11.229Z,0.20
2019-04-25T00:30:31.211Z,0.23
2019-04-25T00:34:48.459Z,0.20
2019-04-25T00:39:05.801Z,0.20
2019-04-25T00:43:22.681Z,0.20
2019-04-25T00:47:39.491Z,0.33
2019-04-25T00:51:55.971Z,0.20
2019-04-25T00:56:12.508Z,0.30
2019-04-25T01:00:41.631Z,0.27
2019-04-25T01:04:58.301Z,0.40
2019-04-25T01:09:16.652Z,0.43
2019-04-25T01:13:33.131Z,0.50
2019-04-25T01:17:51.240Z,0.40
2019-04-25T01:22:08.939Z,0.50
2019-04-25T01:26:25.371Z,0.30
2019-04-25T01:30:41.968Z,0.30
2019-04-25T01:35:04.036Z,0.30
2019-04-25T01:39:29.557Z,0.60
2019-04-25T01:43:58.380Z,0.50
2019-04-25T01:48:13.718Z,0.30
2019-04-25T01:52:30.654Z,0.40
2019-04-25T01:56:47.182Z,0.40
2019-04-25T02:01:04.600Z,0.40
2019-04-25T02:05:21.771Z,0.37
2019-04-25T02:09:38.558Z,0.30
2019-04-25T02:13:55.844Z,0.40
2019-04-25T02:18:13.746Z,0.33
2019-04-25T02:22:30.427Z,0.40
2019-04-25T02:26:46.869Z,0.40
2019-04-25T02:31:08.393Z,0.40
2019-04-25T02:35:21.881Z,0.40
2019-04-25T02:39:38.435Z,0.40
2019-04-25T02:44:00.019Z,0.37
2019-04-25T02:48:24.157Z,0.40
2019-04-25T02:52:44.345Z,0.40
2019-04-25T02:57:02.051Z,0.40
2019-04-25T03:01:22.711Z,0.30
2019-04-25T03:05:37.551Z,0.40
2019-04-25T03:09:54.839Z,0.27
2019-04-25T03:14:11.584Z,0.30
2019-04-25T03:18:30.128Z,0.40
2019-04-25T03:22:47.037Z,0.40
2019-04-25T03:27:05.207Z,0.40
2019-04-25T03:31:26.452Z,0.30
2019-04-25T03:35:40.282Z,0.50
2019-04-25T03:39:56.743Z,0.50
2019-04-25T03:44:13.992Z,0.87
2019-04-25T03:48:30.608Z,0.80
2019-04-25T03:52:47.099Z,0.63
2019-04-25T03:57:05.257Z,0.70
2019-04-25T04:01:22.095Z,0.40
2019-04-25T04:05:38.836Z,0.63
2019-04-25T04:09:55.416Z,0.60
2019-04-25T04:14:14.503Z,0.50
2019-04-25T04:18:34.002Z,0.60
2019-04-25T04:22:55.475Z,0.50
2019-04-25T04:27:16.734Z,0.50
2019-04-25T04:31:33.616Z,0.40
2019-04-25T04:35:51.189Z,0.60
2019-04-25T04:40:08.071Z,0.53
2019-04-25T04:44:25.206Z,0.50
2019-04-25T04:48:41.753Z,0.30
2019-04-25T04:52:59.300Z,0.50
2019-04-25T04:57:26.255Z,0.60
2019-04-25T05:01:36.393Z,0.50
2019-04-25T05:05:53.510Z,0.40
2019-04-25T05:10:14.322Z,0.70
2019-04-25T05:14:30.871Z,0.33
2019-04-25T05:18:47.451Z,0.40
2019-04-25T05:23:03.944Z,0.40
2019-04-25T05:27:37.310Z,0.33
2019-04-25T05:31:43.950Z,0.60
2019-04-25T05:36:03.722Z,0.50
2019-04-25T05:40:20.765Z,0.77
2019-04-25T05:44:37.265Z,0.63
2019-04-25T05:48:53.851Z,0.60
2019-04-25T05:53:10.511Z,0.80
2019-04-25T05:57:27.305Z,0.90
2019-04-25T06:01:44.861Z,1.00
2019-04-25T06:06:03.641Z,0.90
2019-04-25T06:10:23.566Z,0.60
2019-04-25T06:14:40.535Z,1.07
2019-04-25T06:19:14.239Z,1.30
2019-04-25T06:23:41.348Z,1.10
2019-04-25T06:27:59.841Z,1.50
2019-04-25T06:32:16.490Z,1.10
2019-04-25T06:36:35.222Z,0.93
2019-04-25T06:40:53.513Z,0.73
2019-04-25T06:45:30.208Z,0.70
2019-04-25T06:49:47.226Z,1.00
2019-04-25T06:54:03.761Z,0.67
2019-04-25T06:58:20.286Z,0.80
2019-04-25T07:02:37.098Z,0.70
2019-04-25T07:06:54.014Z,0.80
2019-04-25T07:11:10.640Z,0.77
2019-04-25T07:15:27.953Z,0.70
2019-04-25T07:19:44.505Z,0.70
2019-04-25T07:24:01.002Z,0.50
2019-04-25T07:28:24.107Z,0.60
2019-04-25T07:32:50.008Z,0.80
2019-04-25T07:37:06.612Z,0.70
2019-04-25T07:41:24.232Z,0.57
2019-04-25T07:51:01.827Z,1.07
2019-04-25T07:55:18.810Z,1.30
2019-04-25T08:05:29.668Z,0.83
2019-04-25T08:09:44.358Z,0.80
2019-04-25T08:14:33.979Z,0.60
2019-04-25T08:18:57.156Z,0.67
2019-04-25T08:23:39.764Z,0.83
2019-04-25T08:28:03.831Z,0.77
2019-04-25T08:32:35.525Z,1.33
2019-04-25T08:37:00.458Z,1.27
2019-04-25T08:41:28.335Z,0.80
2019-04-25T08:45:46.992Z,0.70
2019-04-25T08:50:08.103Z,0.53
2019-04-25T08:54:27.449Z,0.63
2019-04-25T08:59:06.228Z,1.17
2019-04-25T09:03:24.201Z,1.10
2019-04-25T09:07:40.878Z,1.20
2019-04-25T09:11:57.595Z,0.70
2019-04-25T09:16:15.579Z,0.60
2019-04-25T09:20:34.873Z,0.60
2019-04-25T09:24:51.559Z,0.70
2019-04-25T09:29:16.912Z,0.80
2019-04-25T09:33:26.521Z,0.60
2019-04-25T09:37:44.750Z,1.00
2019-04-25T09:42:01.926Z,0.70
2019-04-25T09:46:29.595Z,0.80
2019-04-25T09:50:48.380Z,0.60
2019-04-25T09:55:26.351Z,0.50
2019-04-25T09:59:43.942Z,0.80
2019-04-25T10:04:01.878Z,0.83
2019-04-25T10:08:18.655Z,0.80
2019-04-25T10:12:35.342Z,0.70
2019-04-25T10:16:52.455Z,1.00
2019-04-25T10:21:14.134Z,0.80
2019-04-25T10:25:30.914Z,0.70
2019-04-25T10:29:53.443Z,0.60
2019-04-25T10:34:06.382Z,0.50
2019-04-25T10:38:24.904Z,0.70
2019-04-25T10:42:44.163Z,0.60
2019-04-25T10:47:00.520Z,0.70
2019-04-25T10:51:17.532Z,0.70
2019-04-25T10:55:34.298Z,0.70
2019-04-25T11:00:00.399Z,0.70
2019-04-25T11:04:23.261Z,0.80
2019-04-25T11:08:40.458Z,0.60
2019-04-25T11:12:57.737Z,0.80
2019-04-25T11:17:15.524Z,0.70
2019-04-25T11:21:33.322Z,0.63
2019-04-25T11:25:50.302Z,1.00
2019-04-25T11:30:11.394Z,1.07
2019-04-25T11:34:27.405Z,0.70
2019-04-25T11:38:46.035Z,0.57
2019-04-25T11:43:04.312Z,1.00
2019-04-25T11:47:21.346Z,0.60
2019-04-25T11:51:38.058Z,0.70
2019-04-25T11:55:54.728Z,0.63
2019-04-25T12:00:22.012Z,0.70
2019-04-25T12:04:31.115Z,0.70
2019-04-25T12:08:47.728Z,1.00
2019-04-25T12:13:04.382Z,0.75
2019-04-25T12:17:21.060Z,0.85
2019-04-25T12:21:37.699Z,0.70
2019-04-25T12:25:55.301Z,0.75
2019-04-25T12:30:13.988Z,0.70
2019-04-25T12:34:30.827Z,1.20
2019-04-25T12:38:48.361Z,0.85
2019-04-25T12:43:05.228Z,1.00
2019-04-25T12:47:26.333Z,1.05
2019-04-25T12:51:42.881Z,0.90
2019-04-25T12:55:59.704Z,1.05
2019-04-25T13:00:22.166Z,1.10
2019-04-25T13:04:38.735Z,1.02
2019-04-25T13:08:55.227Z,0.90
2019-04-25T13:13:13.408Z,0.90
2019-04-25T13:17:30.498Z,1.00
2019-04-25T13:21:47.141Z,1.12
2019-04-25T13:26:05.088Z,1.07
2019-04-25T13:30:40.553Z,1.30
2019-04-25T13:34:59.069Z,1.00
2019-04-25T13:39:16.607Z,1.10
2019-04-25T13:43:33.258Z,1.32
2019-04-25T13:47:50.066Z,0.90
2019-04-25T13:52:08.179Z,1.40
2019-04-25T13:56:26.169Z,1.12
2019-04-25T14:00:44.214Z,1.15
2019-04-25T14:05:00.959Z,1.10
2019-04-25T14:09:19.464Z,1.30
2019-04-25T14:13:36.038Z,1.40
2019-04-25T14:17:58.659Z,1.40
2019-04-25T14:22:15.533Z,1.35
2019-04-25T14:26:32.028Z,1.60
2019-04-25T14:30:48.541Z,1.60
2019-04-25T14:35:05.592Z,1.30
2019-04-25T14:39:22.646Z,1.20
2019-04-25T14:43:40.171Z,1.42
2019-04-25T14:47:56.768Z,1.87
2019-04-25T14:52:13.417Z,1.52
2019-04-25T14:56:32.796Z,1.67
2019-04-25T15:00:51.344Z,1.87
2019-04-25T15:05:08.033Z,1.80
2019-04-25T15:09:24.638Z,1.70
2019-04-25T15:13:41.262Z,1.80
2019-04-25T15:17:59.753Z,1.62
2019-04-25T15:22:17.363Z,1.60
2019-04-25T15:26:33.906Z,1.95
2019-04-25T15:30:51.174Z,1.82
2019-04-25T15:35:10.127Z,2.00
2019-04-25T15:39:28.918Z,1.98
2019-04-25T15:43:45.499Z,1.92
2019-04-25T15:48:04.012Z,1.97
2019-04-25T15:52:20.494Z,1.83
2019-04-25T15:56:37.246Z,1.80
2019-04-25T16:00:54.336Z,1.87
2019-04-25T16:05:11.249Z,1.83
2019-04-25T16:09:27.989Z,2.07
2019-04-25T16:13:44.474Z,1.60
2019-04-25T16:18:01.070Z,1.70
2019-04-25T16:22:17.625Z,1.73
2019-04-25T16:26:34.149Z,1.50
2019-04-25T16:30:50.739Z,2.23
2019-04-25T16:35:07.503Z,2.20
2019-04-25T16:39:25.907Z,2.00
2019-04-25T16:43:44.437Z,1.60
2019-04-25T16:48:01.242Z,2.00
2019-04-25T16:52:17.882Z,1.60
2019-04-25T16:56:34.683Z,2.00
2019-04-25T17:00:53.193Z,1.77
2019-04-25T17:05:11.150Z,1.73
2019-04-25T17:09:28.044Z,1.40
2019-04-25T17:13:46.519Z,1.43
2019-04-25T17:18:10.934Z,1.60
2019-04-25T17:22:30.745Z,1.90
2019-04-25T17:26:47.492Z,1.70
2019-04-25T17:31:23.961Z,1.80
2019-04-25T17:35:54.201Z,1.40
2019-04-25T17:40:12.818Z,1.33
2019-04-25T17:44:29.392Z,1.37
2019-04-25T17:48:46.273Z,1.57
2019-04-25T17:53:03.039Z,1.20
2019-04-25T17:57:19.582Z,0.80
2019-04-25T18:01:36.271Z,1.03
2019-04-25T18:05:53.139Z,1.00
2019-04-25T18:10:10.429Z,0.90
2019-04-25T18:14:26.941Z,1.13
2019-04-25T18:18:55.547Z,1.03
2019-04-25T18:23:29.679Z,1.13
2019-04-25T18:28:05.024Z,1.03
2019-04-25T18:32:22.690Z,1.00
2019-04-25T18:36:39.210Z,1.07
2019-04-25T18:41:03.526Z,1.00
2019-04-25T18:45:31.213Z,1.40
2019-04-25T18:49:47.831Z,1.70
2019-04-25T18:54:06.579Z,2.00
2019-04-25T18:58:25.088Z,1.20
2019-04-25T19:02:58.922Z,1.10
2019-04-25T19:07:22.536Z,1.17
2019-04-25T19:11:37.079Z,1.30
2019-04-25T19:15:54.622Z,1.30
2019-04-25T19:20:11.799Z,1.30
2019-04-25T19:24:30.762Z,1.30
2019-04-25T19:28:47.349Z,1.50
2019-04-25T19:33:07.253Z,1.20
2019-04-25T19:37:23.259Z,1.37
2019-04-25T19:41:41.662Z,1.00
2019-04-25T19:46:00.759Z,1.80
2019-04-25T19:50:17.965Z,1.27
2019-04-25T19:54:34.554Z,1.50
2019-04-25T19:58:55.939Z,1.47
2019-04-25T20:03:17.234Z,1.33
2019-04-25T20:07:36.521Z,1.50
2019-04-25T20:11:55.099Z,1.40
2019-04-25T20:16:13.596Z,1.67
2019-04-25T20:20:30.428Z,1.40
2019-04-25T20:24:47.044Z,1.30
2019-04-25T20:29:03.785Z,1.87
2019-04-25T20:33:20.460Z,1.63
2019-04-25T20:37:37.378Z,1.70
2019-04-25T20:41:54.006Z,1.50
2019-04-25T20:46:10.616Z,1.60
2019-04-25T20:50:27.199Z,1.80
2019-04-25T20:54:43.661Z,1.50
2019-04-25T20:59:00.153Z,2.07
2019-04-25T21:03:16.902Z,1.80
2019-04-25T21:07:33.713Z,1.90
2019-04-25T21:11:51.274Z,1.80
2019-04-25T21:16:26.407Z,1.43
2019-04-25T21:20:43.163Z,1.60
2019-04-25T21:24:59.599Z,1.47
2019-04-25T21:29:16.050Z,1.90
2019-04-25T21:33:32.693Z,1.83
2019-04-25T21:37:49.553Z,1.90
2019-04-25T21:42:11.833Z,1.87
2019-04-25T21:46:28.726Z,1.87
2019-04-25T21:50:45.724Z,2.13
2019-04-25T21:55:04.148Z,2.00
2019-04-25T21:59:20.918Z,2.50
2019-04-25T22:03:37.471Z,2.03
2019-04-25T22:07:54.430Z,2.10
2019-04-25T22:12:13.973Z,2.33
2019-04-25T22:16:30.532Z,1.90
2019-04-25T22:20:47.456Z,2.57
2019-04-25T22:25:05.007Z,2.30
2019-04-25T22:29:22.083Z,2.30
2019-04-25T22:33:57.177Z,2.57
2019-04-25T22:38:14.095Z,2.30
2019-04-25T22:42:30.605Z,2.07
2019-04-25T22:46:47.091Z,2.30
2019-04-25T22:51:03.868Z,2.30
2019-04-25T22:55:20.492Z,2.60
2019-04-25T22:59:37.168Z,2.60
2019-04-25T23:03:55.608Z,2.20
2019-04-25T23:08:12.671Z,3.17
2019-04-25T23:12:29.465Z,2.37
2019-04-25T23:16:45.893Z,2.10
2019-04-25T23:21:02.530Z,2.47
2019-04-25T23:25:21.321Z,3.80
2019-04-25T23:29:37.735Z,3.33
2019-04-25T23:33:54.496Z,3.00
2019-04-25T23:38:13.759Z,2.07
2019-04-25T23:42:30.044Z,2.10
2019-04-25T23:46:46.793Z,1.77
2019-04-25T23:51:03.429Z,1.90
2019-04-25T23:55:20.078Z,1.97
2019-04-25T23:59:36.524Z,1.97
